sensor_id;sensor_type;location;lat;lon;timestamp;P1;durP1;ratioP1;P2;durP2;ratioP2
52072;SDS011;38074;51.232;6.826;2022-10-16T00:06:14;1.65;;;0.57;;
52072;SDS011;38074;51.232;6.826;2022-10-16T00:13:32;1.58;;;0.40;;
52072;SDS011;38074;51.232;6.826;2022-10-16T00:20:48;1.00;;;0.30;;
52072;SDS011;38074;51.232;6.826;2022-10-16T00:28:04;1.87;;;0.50;;
52072;SDS011;38074;51.232;6.826;2022-10-16T00:35:19;0.37;;;0.20;;
52072;SDS011;38074;51.232;6.826;2022-10-16T00:42:35;0.57;;;0.20;;
52072;SDS011;38074;51.232;6.826;2022-10-16T00:49:51;0.60;;;0.30;;
52072;SDS011;38074;51.232;6.826;2022-10-16T00:57:13;0.40;;;0.20;;
52072;SDS011;38074;51.232;6.826;2022-10-16T01:04:35;0.55;;;0.28;;
52072;SDS011;38074;51.232;6.826;2022-10-16T01:12:09;0.60;;;0.30;;
52072;SDS011;38074;51.232;6.826;2022-10-16T01:19:36;0.30;;;0.20;;
52072;SDS011;38074;51.232;6.826;2022-10-16T01:27:29;1.35;;;0.30;;
52072;SDS011;38074;51.232;6.826;2022-10-16T01:34:52;0.40;;;0.20;;
52072;SDS011;38074;51.232;6.826;2022-10-16T01:42:36;1.05;;;0.47;;
52072;SDS011;38074;51.232;6.826;2022-10-16T01:50:03;0.93;;;0.20;;
52072;SDS011;38074;51.232;6.826;2022-10-16T01:57:20;0.63;;;0.20;;
52072;SDS011;38074;51.232;6.826;2022-10-16T02:04:45;0.33;;;0.30;;
52072;SDS011;38074;51.232;6.826;2022-10-16T02:12:12;0.32;;;0.20;;
52072;SDS011;38074;51.232;6.826;2022-10-16T02:19:49;1.23;;;0.10;;
52072;SDS011;38074;51.232;6.826;2022-10-16T02:27:10;0.45;;;0.10;;
52072;SDS011;38074;51.232;6.826;2022-10-16T02:34:30;0.93;;;0.25;;
52072;SDS011;38074;51.232;6.826;2022-10-16T02:49:03;0.30;;;0.20;;
52072;SDS011;38074;51.232;6.826;2022-10-16T02:56:18;0.37;;;0.20;;
52072;SDS011;38074;51.232;6.826;2022-10-16T03:03:34;1.00;;;0.10;;
52072;SDS011;38074;51.232;6.826;2022-10-16T03:10:49;0.40;;;0.17;;
52072;SDS011;38074;51.232;6.826;2022-10-16T03:18:05;1.73;;;0.22;;
52072;SDS011;38074;51.232;6.826;2022-10-16T03:25:21;0.60;;;0.10;;
52072;SDS011;38074;51.232;6.826;2022-10-16T03:32:36;1.00;;;0.20;;
52072;SDS011;38074;51.232;6.826;2022-10-16T03:39:52;0.30;;;0.17;;
52072;SDS011;38074;51.232;6.826;2022-10-16T03:47:07;0.40;;;0.20;;
52072;SDS011;38074;51.232;6.826;2022-10-16T03:54:23;0.50;;;0.20;;
52072;SDS011;38074;51.232;6.826;2022-10-16T04:01:38;0.40;;;0.10;;
52072;SDS011;38074;51.232;6.826;2022-10-16T04:08:54;0.50;;;0.20;;
52072;SDS011;38074;51.232;6.826;2022-10-16T04:16:11;0.70;;;0.10;;
52072;SDS011;38074;51.232;6.826;2022-10-16T04:23:26;1.97;;;0.20;;
52072;SDS011;38074;51.232;6.826;2022-10-16T04:30:42;0.60;;;0.10;;
52072;SDS011;38074;51.232;6.826;2022-10-16T04:37:57;0.60;;;0.10;;
52072;SDS011;38074;51.232;6.826;2022-10-16T04:45:13;0.50;;;0.20;;
52072;SDS011;38074;51.232;6.826;2022-10-16T04:52:29;0.47;;;0.10;;
52072;SDS011;38074;51.232;6.826;2022-10-16T04:59:46;0.47;;;0.10;;
52072;SDS011;38074;51.232;6.826;2022-10-16T05:07:01;0.30;;;0.10;;
52072;SDS011;38074;51.232;6.826;2022-10-16T05:14:17;0.47;;;0.13;;
52072;SDS011;38074;51.232;6.826;2022-10-16T05:21:32;0.43;;;0.10;;
52072;SDS011;38074;51.232;6.826;2022-10-16T05:28:48;0.30;;;0.10;;
52072;SDS011;38074;51.232;6.826;2022-10-16T05:36:05;0.77;;;0.10;;
52072;SDS011;38074;51.232;6.826;2022-10-16T05:43:22;0.20;;;0.10;;
52072;SDS011;38074;51.232;6.826;2022-10-16T05:50:38;0.23;;;0.10;;
52072;SDS011;38074;51.232;6.826;2022-10-16T05:57:54;0.90;;;0.30;;
52072;SDS011;38074;51.232;6.826;2022-10-16T06:05:10;0.20;;;0.10;;
52072;SDS011;38074;51.232;6.826;2022-10-16T06:12:26;0.10;;;0.10;;
52072;SDS011;38074;51.232;6.826;2022-10-16T06:19:41;0.45;;;0.10;;
52072;SDS011;38074;51.232;6.826;2022-10-16T06:26:57;0.20;;;0.10;;
52072;SDS011;38074;51.232;6.826;2022-10-16T06:34:12;1.03;;;0.17;;
52072;SDS011;38074;51.232;6.826;2022-10-16T06:41:28;0.27;;;0.10;;
52072;SDS011;38074;51.232;6.826;2022-10-16T06:48:44;1.02;;;0.20;;
52072;SDS011;38074;51.232;6.826;2022-10-16T06:56:08;2.73;;;0.40;;
52072;SDS011;38074;51.232;6.826;2022-10-16T07:03:38;5.13;;;0.30;;
52072;SDS011;38074;51.232;6.826;2022-10-16T07:10:58;2.10;;;0.20;;
52072;SDS011;38074;51.232;6.826;2022-10-16T07:18:15;2.58;;;0.35;;
52072;SDS011;38074;51.232;6.826;2022-10-16T07:25:31;2.50;;;0.50;;
52072;SDS011;38074;51.232;6.826;2022-10-16T07:32:46;6.13;;;1.20;;
52072;SDS011;38074;51.232;6.826;2022-10-16T07:40:02;2.93;;;0.80;;
52072;SDS011;38074;51.232;6.826;2022-10-16T07:47:17;2.55;;;1.15;;
52072;SDS011;38074;51.232;6.826;2022-10-16T07:54:33;4.60;;;1.57;;
52072;SDS011;38074;51.232;6.826;2022-10-16T08:01:49;6.40;;;1.80;;
52072;SDS011;38074;51.232;6.826;2022-10-16T08:09:05;10.05;;;2.20;;
52072;SDS011;38074;51.232;6.826;2022-10-16T08:16:22;6.55;;;1.90;;
52072;SDS011;38074;51.232;6.826;2022-10-16T08:23:37;11.77;;;2.03;;
52072;SDS011;38074;51.232;6.826;2022-10-16T08:30:53;9.67;;;1.80;;
52072;SDS011;38074;51.232;6.826;2022-10-16T08:38:08;16.40;;;2.30;;
52072;SDS011;38074;51.232;6.826;2022-10-16T08:53:06;8.65;;;1.60;;
52072;SDS011;38074;51.232;6.826;2022-10-16T09:00:26;5.55;;;1.00;;
52072;SDS011;38074;51.232;6.826;2022-10-16T09:08:30;4.40;;;1.03;;
52072;SDS011;38074;51.232;6.826;2022-10-16T09:22:48;6.60;;;1.00;;
52072;SDS011;38074;51.232;6.826;2022-10-16T09:30:16;5.35;;;0.82;;
52072;SDS011;38074;51.232;6.826;2022-10-16T09:37:33;2.88;;;0.60;;
52072;SDS011;38074;51.232;6.826;2022-10-16T09:44:52;1.88;;;0.50;;
52072;SDS011;38074;51.232;6.826;2022-10-16T09:52:12;1.65;;;0.57;;
52072;SDS011;38074;51.232;6.826;2022-10-16T09:59:29;3.63;;;0.40;;
52072;SDS011;38074;51.232;6.826;2022-10-16T10:06:46;4.50;;;0.63;;
52072;SDS011;38074;51.232;6.826;2022-10-16T10:14:05;3.75;;;0.75;;
52072;SDS011;38074;51.232;6.826;2022-10-16T10:21:23;2.30;;;0.60;;
52072;SDS011;38074;51.232;6.826;2022-10-16T10:36:39;8.02;;;0.90;;
52072;SDS011;38074;51.232;6.826;2022-10-16T11:06:44;3.75;;;0.73;;
52072;SDS011;38074;51.232;6.826;2022-10-16T11:14:18;4.63;;;0.80;;
52072;SDS011;38074;51.232;6.826;2022-10-16T11:21:39;5.28;;;0.88;;
52072;SDS011;38074;51.232;6.826;2022-10-16T11:29:24;4.10;;;0.40;;
52072;SDS011;38074;51.232;6.826;2022-10-16T11:51:29;1.88;;;0.30;;
52072;SDS011;38074;51.232;6.826;2022-10-16T11:58:52;2.42;;;0.40;;
52072;SDS011;38074;51.232;6.826;2022-10-16T12:13:39;1.58;;;0.35;;
52072;SDS011;38074;51.232;6.826;2022-10-16T12:20:56;4.32;;;0.45;;
52072;SDS011;38074;51.232;6.826;2022-10-16T12:28:17;4.22;;;0.40;;
52072;SDS011;38074;51.232;6.826;2022-10-16T12:35:42;4.25;;;0.50;;
52072;SDS011;38074;51.232;6.826;2022-10-16T12:43:10;4.15;;;0.55;;
52072;SDS011;38074;51.232;6.826;2022-10-16T12:50:36;12.40;;;0.75;;
52072;SDS011;38074;51.232;6.826;2022-10-16T13:21:06;10.80;;;3.08;;
52072;SDS011;38074;51.232;6.826;2022-10-16T13:28:21;4.50;;;0.43;;
52072;SDS011;38074;51.232;6.826;2022-10-16T13:35:48;7.50;;;1.20;;
52072;SDS011;38074;51.232;6.826;2022-10-16T13:43:07;2.90;;;0.82;;
52072;SDS011;38074;51.232;6.826;2022-10-16T13:50:24;4.68;;;0.77;;
52072;SDS011;38074;51.232;6.826;2022-10-16T13:57:39;3.97;;;0.60;;
52072;SDS011;38074;51.232;6.826;2022-10-16T14:04:55;3.42;;;0.50;;
52072;SDS011;38074;51.232;6.826;2022-10-16T14:12:12;2.60;;;0.40;;
52072;SDS011;38074;51.232;6.826;2022-10-16T14:19:28;4.23;;;0.57;;
52072;SDS011;38074;51.232;6.826;2022-10-16T14:26:45;6.68;;;0.80;;
52072;SDS011;38074;51.232;6.826;2022-10-16T14:34:02;5.20;;;0.80;;
52072;SDS011;38074;51.232;6.826;2022-10-16T14:41:22;4.73;;;0.80;;
52072;SDS011;38074;51.232;6.826;2022-10-16T14:48:49;4.25;;;0.68;;
52072;SDS011;38074;51.232;6.826;2022-10-16T14:56:07;6.63;;;0.67;;
52072;SDS011;38074;51.232;6.826;2022-10-16T15:03:23;3.55;;;0.52;;
52072;SDS011;38074;51.232;6.826;2022-10-16T15:10:42;6.67;;;0.70;;
52072;SDS011;38074;51.232;6.826;2022-10-16T15:17:59;5.70;;;0.70;;
52072;SDS011;38074;51.232;6.826;2022-10-16T15:32:46;6.93;;;0.98;;
52072;SDS011;38074;51.232;6.826;2022-10-16T15:40:02;12.30;;;1.67;;
52072;SDS011;38074;51.232;6.826;2022-10-16T15:47:18;4.20;;;1.10;;
52072;SDS011;38074;51.232;6.826;2022-10-16T15:54:33;6.87;;;1.30;;
52072;SDS011;38074;51.232;6.826;2022-10-16T16:01:49;7.17;;;1.20;;
52072;SDS011;38074;51.232;6.826;2022-10-16T16:09:04;13.73;;;1.47;;
52072;SDS011;38074;51.232;6.826;2022-10-16T16:16:20;14.90;;;1.70;;
52072;SDS011;38074;51.232;6.826;2022-10-16T16:23:35;16.38;;;1.67;;
52072;SDS011;38074;51.232;6.826;2022-10-16T16:30:51;14.63;;;1.35;;
52072;SDS011;38074;51.232;6.826;2022-10-16T16:38:06;12.17;;;1.37;;
52072;SDS011;38074;51.232;6.826;2022-10-16T16:45:22;12.03;;;1.43;;
52072;SDS011;38074;51.232;6.826;2022-10-16T16:52:38;6.40;;;1.10;;
52072;SDS011;38074;51.232;6.826;2022-10-16T16:59:53;8.27;;;1.60;;
52072;SDS011;38074;51.232;6.826;2022-10-16T17:07:09;16.47;;;1.37;;
52072;SDS011;38074;51.232;6.826;2022-10-16T17:14:24;9.13;;;1.30;;
52072;SDS011;38074;51.232;6.826;2022-10-16T17:21:40;9.67;;;1.43;;
52072;SDS011;38074;51.232;6.826;2022-10-16T17:28:57;5.65;;;1.30;;
52072;SDS011;38074;51.232;6.826;2022-10-16T17:36:14;5.88;;;1.35;;
52072;SDS011;38074;51.232;6.826;2022-10-16T17:43:30;4.97;;;1.37;;
52072;SDS011;38074;51.232;6.826;2022-10-16T17:50:45;5.53;;;1.10;;
52072;SDS011;38074;51.232;6.826;2022-10-16T17:58:01;3.40;;;1.00;;
52072;SDS011;38074;51.232;6.826;2022-10-16T18:05:16;4.27;;;0.90;;
52072;SDS011;38074;51.232;6.826;2022-10-16T18:12:32;2.67;;;0.77;;
52072;SDS011;38074;51.232;6.826;2022-10-16T18:19:48;4.07;;;0.70;;
52072;SDS011;38074;51.232;6.826;2022-10-16T18:27:03;5.73;;;1.10;;
52072;SDS011;38074;51.232;6.826;2022-10-16T18:34:19;3.33;;;1.00;;
52072;SDS011;38074;51.232;6.826;2022-10-16T18:41:35;2.83;;;1.00;;
52072;SDS011;38074;51.232;6.826;2022-10-16T18:48:52;2.17;;;0.93;;
52072;SDS011;38074;51.232;6.826;2022-10-16T18:56:09;2.88;;;0.73;;
52072;SDS011;38074;51.232;6.826;2022-10-16T19:03:26;2.30;;;1.07;;
52072;SDS011;38074;51.232;6.826;2022-10-16T19:10:41;4.57;;;1.00;;
52072;SDS011;38074;51.232;6.826;2022-10-16T19:17:57;6.35;;;1.00;;
52072;SDS011;38074;51.232;6.826;2022-10-16T19:25:12;4.10;;;0.80;;
52072;SDS011;38074;51.232;6.826;2022-10-16T19:32:28;2.00;;;0.80;;
52072;SDS011;38074;51.232;6.826;2022-10-16T19:39:47;4.10;;;0.75;;
52072;SDS011;38074;51.232;6.826;2022-10-16T19:47:03;3.33;;;0.75;;
52072;SDS011;38074;51.232;6.826;2022-10-16T19:54:19;1.97;;;0.60;;
52072;SDS011;38074;51.232;6.826;2022-10-16T20:01:34;2.75;;;0.85;;
52072;SDS011;38074;51.232;6.826;2022-10-16T20:08:50;2.07;;;0.50;;
52072;SDS011;38074;51.232;6.826;2022-10-16T20:16:08;1.33;;;0.60;;
52072;SDS011;38074;51.232;6.826;2022-10-16T20:23:24;2.20;;;0.65;;
52072;SDS011;38074;51.232;6.826;2022-10-16T20:30:41;3.85;;;0.73;;
52072;SDS011;38074;51.232;6.826;2022-10-16T20:37:58;1.30;;;0.50;;
52072;SDS011;38074;51.232;6.826;2022-10-16T20:45:14;1.90;;;0.60;;
52072;SDS011;38074;51.232;6.826;2022-10-16T20:52:32;2.87;;;0.50;;
52072;SDS011;38074;51.232;6.826;2022-10-16T20:59:48;3.28;;;0.50;;
52072;SDS011;38074;51.232;6.826;2022-10-16T21:07:08;2.03;;;0.60;;
52072;SDS011;38074;51.232;6.826;2022-10-16T21:14:24;2.35;;;0.50;;
52072;SDS011;38074;51.232;6.826;2022-10-16T21:21:40;1.97;;;0.60;;
52072;SDS011;38074;51.232;6.826;2022-10-16T21:28:59;4.80;;;1.10;;
52072;SDS011;38074;51.232;6.826;2022-10-16T21:36:23;5.38;;;1.30;;
52072;SDS011;38074;51.232;6.826;2022-10-16T21:43:40;4.65;;;1.10;;
52072;SDS011;38074;51.232;6.826;2022-10-16T21:50:56;7.80;;;1.15;;
52072;SDS011;38074;51.232;6.826;2022-10-16T21:58:11;4.53;;;1.23;;
52072;SDS011;38074;51.232;6.826;2022-10-16T22:05:27;3.20;;;0.60;;
52072;SDS011;38074;51.232;6.826;2022-10-16T22:12:42;3.87;;;0.60;;
52072;SDS011;38074;51.232;6.826;2022-10-16T22:19:58;3.70;;;0.85;;
52072;SDS011;38074;51.232;6.826;2022-10-16T22:27:14;1.63;;;0.67;;
52072;SDS011;38074;51.232;6.826;2022-10-16T22:34:29;3.67;;;0.80;;
52072;SDS011;38074;51.232;6.826;2022-10-16T22:41:45;2.67;;;0.90;;
52072;SDS011;38074;51.232;6.826;2022-10-16T22:49:00;1.60;;;0.60;;
52072;SDS011;38074;51.232;6.826;2022-10-16T22:56:17;3.50;;;0.70;;
52072;SDS011;38074;51.232;6.826;2022-10-16T23:03:33;1.80;;;0.70;;
52072;SDS011;38074;51.232;6.826;2022-10-16T23:10:49;1.80;;;0.40;;
52072;SDS011;38074;51.232;6.826;2022-10-16T23:18:04;2.80;;;0.70;;
52072;SDS011;38074;51.232;6.826;2022-10-16T23:25:20;1.17;;;0.55;;
52072;SDS011;38074;51.232;6.826;2022-10-16T23:32:36;0.47;;;0.30;;
52072;SDS011;38074;51.232;6.826;2022-10-16T23:39:51;1.03;;;0.47;;
52072;SDS011;38074;51.232;6.826;2022-10-16T23:47:08;2.38;;;0.80;;
52072;SDS011;38074;51.232;6.826;2022-10-16T23:54:23;1.25;;;0.45;;
